Heroic Leader — C6ZD2 — position and weather

sailwx.info

Track history (hours):
 
Tides and Currents Weather Stations Pressure Air Temp Water Temp Dewpoint Dewpoint Depression Visibility Wind Speed Wind Dir Waves Ship Positions

Heroic Leader

Last reported at 2018-Jan-18 11:14 UTC. Time now 2018-Jan-18 21:59 UTC.
Position N 40°45' E 029°32'.

Length 200 m; draft 8.2 m.

Type: Cargo ship. MMSI: 311052700.

Date/timePositionNaut miles runAvg speedWind from/ knotsBaromVisibWave heightAir tempDewpointWater temp
2018-Jan-18 11:14N 40°45' E 029°32'210.3
2018-Jan-18 11:00N 40°45' E 029°29'611.1
2018-Jan-18 10:30N 40°43' E 029°22'5 9.5
2018-Jan-18 10:00N 40°43' E 029°15'511.0
2018-Jan-18 09:30N 40°43' E 029°08'510.8
2018-Jan-18 09:00N 40°43' E 029°01'510.7
2018-Jan-18 08:30N 40°44' E 028°54'  
2018-Jan-12 04:26N 38°19' W 009°59'613.4
2018-Jan-12 04:00N 38°25' W 010°01'713.2
2018-Jan-12 03:30N 38°31' W 010°03'913.3
2018-Jan-12 02:49N 38°40' W 010°05'513.5
2018-Jan-12 02:27N 38°45' W 010°06'613.2
2018-Jan-12 02:00N 38°51' W 010°06'613.1
2018-Jan-12 01:31N 38°57' W 010°06'713.0
2018-Jan-12 01:00N 39°04' W 010°06'1013.1
2018-Jan-12 00:17N 39°14' W 010°06'  
2018-Jan-09 09:51N 49°56' W 003°52'617.3
2018-Jan-09 09:30N 50°00' W 003°47'918.0
2018-Jan-09 09:00N 50°07' W 003°37'917.1
2018-Jan-09 08:30N 50°13' W 003°28'714.5
2018-Jan-09 08:00N 50°20' W 003°27'511.0
2018-Jan-09 07:30N 50°26' W 003°25'4 8.6
2018-Jan-09 07:00N 50°26' W 003°19'713.6
2018-Jan-09 06:30N 50°25' W 003°08'714.3
2018-Jan-09 06:01N 50°25' W 002°57'714.1
2018-Jan-09 05:31N 50°25' W 002°46'714.2
2018-Jan-09 05:00N 50°25' W 002°35'713.8
2018-Jan-09 04:30N 50°25' W 002°24'713.2
2018-Jan-09 04:00N 50°25' W 002°14'612.7
2018-Jan-09 03:30N 50°25' W 002°04'612.4
2018-Jan-09 03:00N 50°25' W 001°54'612.0
2018-Jan-09 02:31N 50°25' W 001°45'811.7
2018-Jan-09 01:51N 50°25' W 001°32'411.2
2018-Jan-09 01:30N 50°25' W 001°26'611.0
2018-Jan-09 01:00N 50°25' W 001°18'610.9
2018-Jan-09 00:29N 50°25' W 001°09'511.2
2018-Jan-09 00:01N 50°25' W 001°01'612.0
2018-Jan-08 23:29N 50°25' W 000°50'713.1
2018-Jan-08 22:55N 50°25' W 000°39'813.7
2018-Jan-08 22:20N 50°25' W 000°26'514.3
2018-Jan-08 21:57N 50°25' W 000°18'614.1
2018-Jan-08 21:30N 50°26' W 000°08'814.7
2018-Jan-08 20:57N 50°29' E 000°04'714.9
2018-Jan-08 20:30N 50°32' E 000°14'714.8
2018-Jan-08 20:00N 50°34' E 000°24'714.6
2018-Jan-08 19:30N 50°37' E 000°35'714.2
2018-Jan-08 19:00N 50°40' E 000°45'713.7
2018-Jan-08 18:30N 50°44' E 000°54'713.1
2018-Jan-08 18:00N 50°48' E 001°02'612.4
2018-Jan-08 17:30N 50°51' E 001°10'1311.4
2018-Jan-08 16:23N 51°00' E 001°25'411.4
2018-Jan-08 16:00N 51°03' E 001°30'611.7
2018-Jan-08 15:30N 51°07' E 001°37'612.3
2018-Jan-08 15:00N 51°11' E 001°44'713.3
2018-Jan-08 14:30N 51°18' E 001°48'714.3
2018-Jan-08 14:00N 51°24' E 001°52'714.5
2018-Jan-08 13:30N 51°30' E 001°60'815.1
2018-Jan-08 13:00N 51°35' E 002°08'915.1
2018-Jan-08 12:26N 51°42' E 002°17'714.8
2018-Jan-08 11:59N 51°47' E 002°24'714.2
2018-Jan-08 11:29N 51°52' E 002°32'  
Track history (hours):
 
Tides and Currents Weather Stations Pressure Air Temp Water Temp Dewpoint Dewpoint Depression Visibility Wind Speed Wind Dir Waves Ship Positions

Heroic Leader

Last reported at 2018-Jan-18 11:14 UTC. Time now 2018-Jan-18 21:59 UTC.
Position N 40°45' E 029°32'.

Length 200 m; draft 8.2 m.

Type: Cargo ship. MMSI: 311052700.

Date/timePositionNaut miles runAvg speedWind from/ knotsBaromVisibWave heightAir tempDewpointWater temp
2018-Jan-18 11:14N 40°45' E 029°32'210.3
2018-Jan-18 11:00N 40°45' E 029°29'611.1
2018-Jan-18 10:30N 40°43' E 029°22'5 9.5
2018-Jan-18 10:00N 40°43' E 029°15'511.0
2018-Jan-18 09:30N 40°43' E 029°08'510.8
2018-Jan-18 09:00N 40°43' E 029°01'510.7
2018-Jan-18 08:30N 40°44' E 028°54'  
2018-Jan-12 04:26N 38°19' W 009°59'613.4
2018-Jan-12 04:00N 38°25' W 010°01'713.2
2018-Jan-12 03:30N 38°31' W 010°03'913.3
2018-Jan-12 02:49N 38°40' W 010°05'513.5
2018-Jan-12 02:27N 38°45' W 010°06'613.2
2018-Jan-12 02:00N 38°51' W 010°06'613.1
2018-Jan-12 01:31N 38°57' W 010°06'713.0
2018-Jan-12 01:00N 39°04' W 010°06'1013.1
2018-Jan-12 00:17N 39°14' W 010°06'  
2018-Jan-09 09:51N 49°56' W 003°52'617.3
2018-Jan-09 09:30N 50°00' W 003°47'918.0
2018-Jan-09 09:00N 50°07' W 003°37'917.1
2018-Jan-09 08:30N 50°13' W 003°28'714.5
2018-Jan-09 08:00N 50°20' W 003°27'511.0
2018-Jan-09 07:30N 50°26' W 003°25'4 8.6
2018-Jan-09 07:00N 50°26' W 003°19'713.6
2018-Jan-09 06:30N 50°25' W 003°08'714.3
2018-Jan-09 06:01N 50°25' W 002°57'714.1
2018-Jan-09 05:31N 50°25' W 002°46'714.2
2018-Jan-09 05:00N 50°25' W 002°35'713.8
2018-Jan-09 04:30N 50°25' W 002°24'713.2
2018-Jan-09 04:00N 50°25' W 002°14'612.7
2018-Jan-09 03:30N 50°25' W 002°04'612.4
2018-Jan-09 03:00N 50°25' W 001°54'612.0
2018-Jan-09 02:31N 50°25' W 001°45'811.7
2018-Jan-09 01:51N 50°25' W 001°32'411.2
2018-Jan-09 01:30N 50°25' W 001°26'611.0
2018-Jan-09 01:00N 50°25' W 001°18'610.9
2018-Jan-09 00:29N 50°25' W 001°09'511.2
2018-Jan-09 00:01N 50°25' W 001°01'612.0
2018-Jan-08 23:29N 50°25' W 000°50'713.1
2018-Jan-08 22:55N 50°25' W 000°39'813.7
2018-Jan-08 22:20N 50°25' W 000°26'514.3
2018-Jan-08 21:57N 50°25' W 000°18'614.1
2018-Jan-08 21:30N 50°26' W 000°08'814.7
2018-Jan-08 20:57N 50°29' E 000°04'714.9
2018-Jan-08 20:30N 50°32' E 000°14'714.8
2018-Jan-08 20:00N 50°34' E 000°24'714.6
2018-Jan-08 19:30N 50°37' E 000°35'714.2
2018-Jan-08 19:00N 50°40' E 000°45'713.7
2018-Jan-08 18:30N 50°44' E 000°54'713.1
2018-Jan-08 18:00N 50°48' E 001°02'612.4
2018-Jan-08 17:30N 50°51' E 001°10'1311.4
2018-Jan-08 16:23N 51°00' E 001°25'411.4
2018-Jan-08 16:00N 51°03' E 001°30'611.7
2018-Jan-08 15:30N 51°07' E 001°37'612.3
2018-Jan-08 15:00N 51°11' E 001°44'713.3
2018-Jan-08 14:30N 51°18' E 001°48'714.3
2018-Jan-08 14:00N 51°24' E 001°52'714.5
2018-Jan-08 13:30N 51°30' E 001°60'815.1
2018-Jan-08 13:00N 51°35' E 002°08'915.1
2018-Jan-08 12:26N 51°42' E 002°17'714.8
2018-Jan-08 11:59N 51°47' E 002°24'714.2
2018-Jan-08 11:29N 51°52' E 002°32'  

Dump ship's entire track history